createdAt,value
2017-11-07T00:01:40.743Z,2.47
2017-11-07T00:04:07.169Z,2.07
2017-11-07T00:06:33.425Z,1.93
2017-11-07T00:08:59.674Z,2.00
2017-11-07T00:11:26.144Z,2.17
2017-11-07T00:13:52.494Z,2.23
2017-11-07T00:16:18.723Z,2.07
2017-11-07T00:18:44.931Z,1.93
2017-11-07T00:21:11.198Z,2.00
2017-11-07T00:23:37.641Z,2.50
2017-11-07T00:26:03.839Z,2.30
2017-11-07T00:28:30.330Z,2.30
2017-11-07T00:30:56.556Z,1.80
2017-11-07T00:33:22.995Z,2.43
2017-11-07T00:35:49.280Z,2.10
2017-11-07T00:38:15.630Z,1.93
2017-11-07T00:40:41.851Z,1.87
2017-11-07T00:43:08.123Z,1.90
2017-11-07T00:45:34.338Z,1.90
2017-11-07T00:48:00.534Z,2.10
2017-11-07T00:50:26.907Z,2.13
2017-11-07T00:52:53.110Z,2.03
2017-11-07T00:55:19.323Z,2.10
2017-11-07T00:57:45.659Z,2.00
2017-11-07T01:00:11.846Z,1.93
2017-11-07T01:02:38.029Z,2.07
2017-11-07T01:05:04.342Z,2.03
2017-11-07T01:07:30.529Z,1.93
2017-11-07T01:09:56.726Z,1.80
2017-11-07T01:12:23.285Z,1.90
2017-11-07T01:14:49.482Z,2.57
2017-11-07T01:17:15.670Z,2.10
2017-11-07T01:19:41.917Z,2.23
2017-11-07T01:22:08.112Z,2.23
2017-11-07T01:24:34.313Z,2.03
2017-11-07T01:27:00.617Z,2.10
2017-11-07T01:29:26.795Z,2.00
2017-11-07T01:31:53.233Z,2.30
2017-11-07T01:34:19.657Z,1.93
2017-11-07T01:36:45.875Z,1.67
2017-11-07T01:39:12.545Z,2.03
2017-11-07T01:41:38.864Z,2.10
2017-11-07T01:44:05.074Z,2.00
2017-11-07T01:46:31.287Z,1.80
2017-11-07T01:48:57.940Z,2.20
2017-11-07T01:51:24.153Z,2.13
2017-11-07T01:53:50.590Z,2.20
2017-11-07T01:56:16.842Z,2.30
2017-11-07T01:58:43.122Z,1.70
2017-11-07T02:01:09.330Z,2.00
2017-11-07T02:03:35.670Z,1.60
2017-11-07T02:06:02.091Z,2.20
2017-11-07T02:08:28.289Z,2.00
2017-11-07T02:10:55.234Z,2.10
2017-11-07T02:13:21.441Z,1.83
2017-11-07T02:15:47.653Z,2.13
2017-11-07T02:18:14.463Z,1.70
2017-11-07T02:20:40.891Z,1.80
2017-11-07T02:23:07.103Z,1.70
2017-11-07T02:25:33.703Z,2.27
2017-11-07T02:27:59.901Z,1.70
2017-11-07T02:30:26.105Z,1.83
2017-11-07T02:32:52.401Z,1.50
2017-11-07T02:35:18.856Z,1.80
2017-11-07T02:37:45.077Z,2.00
2017-11-07T02:40:11.817Z,1.80
2017-11-07T02:42:38.295Z,2.20
2017-11-07T02:45:04.503Z,2.03
2017-11-07T02:47:30.747Z,1.70
2017-11-07T02:49:56.933Z,1.63
2017-11-07T02:52:23.246Z,1.80
2017-11-07T02:54:49.459Z,1.60
2017-11-07T02:57:15.662Z,1.90
2017-11-07T02:59:41.916Z,1.70
2017-11-07T03:02:08.109Z,1.80
2017-11-07T03:04:34.381Z,1.63
2017-11-07T03:07:00.713Z,1.97
2017-11-07T03:09:27.135Z,1.73
2017-11-07T03:11:53.324Z,1.90
2017-11-07T03:14:19.821Z,1.80
2017-11-07T03:16:46.034Z,2.07
2017-11-07T03:19:12.257Z,1.40
2017-11-07T03:21:38.513Z,1.97
2017-11-07T03:24:04.710Z,1.60
2017-11-07T03:26:30.894Z,1.93
2017-11-07T03:28:57.161Z,1.73
2017-11-07T03:31:23.344Z,1.93
2017-11-07T03:33:49.546Z,1.60
2017-11-07T03:36:15.768Z,1.40
2017-11-07T03:38:41.994Z,1.80
2017-11-07T03:41:08.432Z,1.70
2017-11-07T03:43:34.752Z,1.93
2017-11-07T03:46:00.990Z,1.80
2017-11-07T03:48:27.194Z,1.30
2017-11-07T03:50:53.821Z,1.80
2017-11-07T03:53:20.037Z,1.80
2017-11-07T03:55:46.244Z,2.20
2017-11-07T03:58:12.484Z,1.70
2017-11-07T04:00:38.751Z,1.87
2017-11-07T04:03:04.958Z,1.53
2017-11-07T04:05:31.203Z,1.33
2017-11-07T04:07:57.409Z,2.00
2017-11-07T04:10:23.854Z,1.70
2017-11-07T04:12:50.201Z,1.93
2017-11-07T04:15:16.677Z,1.57
2017-11-07T04:17:42.902Z,1.40
2017-11-07T04:20:09.153Z,1.57
2017-11-07T04:22:35.384Z,2.00
2017-11-07T04:25:01.586Z,1.50
2017-11-07T04:27:27.856Z,1.60
2017-11-07T04:29:54.065Z,1.77
2017-11-07T04:32:20.273Z,1.60
2017-11-07T04:34:47.232Z,1.80
2017-11-07T04:37:13.432Z,1.77
2017-11-07T04:39:39.660Z,1.77
2017-11-07T04:42:06.093Z,1.47
2017-11-07T04:44:32.284Z,1.73
2017-11-07T04:46:58.490Z,1.50
2017-11-07T04:49:24.977Z,1.93
2017-11-07T04:51:51.179Z,1.67
2017-11-07T04:54:17.365Z,2.00
2017-11-07T04:56:43.922Z,1.63
2017-11-07T04:59:10.114Z,2.03
2017-11-07T05:01:36.297Z,1.60
2017-11-07T05:04:02.616Z,1.63
2017-11-07T05:06:28.808Z,1.60
2017-11-07T05:08:55.001Z,2.13
2017-11-07T05:11:21.259Z,1.80
2017-11-07T05:13:53.477Z,1.80
2017-11-07T05:16:19.668Z,1.67
2017-11-07T05:18:45.936Z,1.70
2017-11-07T05:21:12.154Z,1.60
2017-11-07T05:23:38.344Z,2.20
2017-11-07T05:26:04.594Z,1.87
2017-11-07T05:28:31.021Z,1.47
2017-11-07T05:30:57.230Z,1.70
2017-11-07T05:33:23.947Z,1.80
2017-11-07T05:35:50.146Z,1.53
2017-11-07T05:38:16.351Z,1.93
2017-11-07T05:40:42.611Z,1.67
2017-11-07T05:43:09.188Z,1.67
2017-11-07T05:45:35.380Z,1.80
2017-11-07T05:48:01.715Z,1.63
2017-11-07T05:50:27.967Z,1.43
2017-11-07T05:52:54.153Z,1.70
2017-11-07T05:55:20.417Z,1.57
2017-11-07T05:57:46.606Z,1.43
2017-11-07T06:00:13.116Z,1.60
2017-11-07T06:02:39.478Z,1.60
2017-11-07T06:05:05.689Z,1.70
2017-11-07T06:07:31.896Z,1.73
2017-11-07T06:09:58.242Z,1.77
2017-11-07T06:12:24.452Z,1.57
2017-11-07T06:14:50.653Z,1.60
2017-11-07T06:17:17.317Z,1.60
2017-11-07T06:19:43.545Z,1.47
2017-11-07T06:22:09.725Z,1.40
2017-11-07T06:24:35.973Z,1.83
2017-11-07T06:27:02.177Z,2.20
2017-11-07T06:29:28.620Z,2.43
2017-11-07T06:31:55.260Z,2.43
2017-11-07T06:34:21.753Z,2.57
2017-11-07T06:36:48.202Z,2.43
2017-11-07T06:39:14.542Z,2.10
2017-11-07T06:41:40.741Z,2.10
2017-11-07T06:44:07.031Z,2.50
2017-11-07T06:46:33.297Z,1.77
2017-11-07T06:48:59.497Z,2.97
2017-11-07T06:51:25.946Z,2.17
2017-11-07T06:53:52.235Z,2.47
2017-11-07T06:56:18.437Z,1.70
2017-11-07T06:58:44.633Z,3.97
2017-11-07T07:01:11.192Z,2.27
2017-11-07T07:03:37.647Z,3.20
2017-11-07T07:06:03.864Z,2.20
2017-11-07T07:08:30.198Z,2.47
2017-11-07T07:10:56.738Z,2.47
2017-11-07T07:13:22.929Z,2.03
2017-11-07T07:15:49.183Z,2.30
2017-11-07T07:18:15.375Z,2.20
2017-11-07T07:20:41.826Z,3.00
2017-11-07T07:23:08.082Z,3.00
2017-11-07T07:25:34.295Z,2.50
2017-11-07T07:28:00.510Z,2.73
2017-11-07T07:30:26.826Z,2.73
2017-11-07T07:32:53.031Z,2.40
2017-11-07T07:35:19.505Z,2.47
2017-11-07T07:37:45.761Z,1.93
2017-11-07T07:40:11.995Z,1.87
2017-11-07T07:42:38.495Z,2.77
2017-11-07T07:45:05.392Z,2.07
2017-11-07T07:47:31.618Z,1.90
2017-11-07T07:49:58.063Z,2.00
2017-11-07T07:52:24.662Z,3.67
2017-11-07T07:54:50.853Z,2.17
2017-11-07T07:57:17.062Z,2.17
2017-11-07T07:59:43.783Z,2.30
2017-11-07T08:02:10.267Z,2.20
2017-11-07T08:04:36.618Z,2.23
2017-11-07T08:07:03.240Z,2.10
2017-11-07T08:09:29.490Z,2.20
2017-11-07T08:11:55.730Z,2.03
2017-11-07T08:14:22.030Z,2.03
2017-11-07T08:16:48.556Z,2.10
2017-11-07T08:19:14.770Z,1.80
2017-11-07T08:21:41.016Z,2.43
2017-11-07T08:24:07.215Z,2.30
2017-11-07T08:26:33.407Z,1.73
2017-11-07T08:28:59.743Z,2.10
2017-11-07T08:31:25.946Z,2.07
2017-11-07T08:33:52.174Z,1.47
2017-11-07T08:36:18.738Z,2.10
2017-11-07T08:38:44.960Z,1.80
2017-11-07T08:41:11.183Z,1.80
2017-11-07T08:43:37.347Z,1.90
2017-11-07T08:46:03.582Z,2.10
2017-11-07T08:48:30.133Z,2.27
2017-11-07T08:50:56.447Z,2.60
2017-11-07T08:53:22.671Z,2.13
2017-11-07T08:55:48.875Z,1.97
2017-11-07T08:58:15.130Z,2.30
2017-11-07T09:00:41.340Z,2.47
2017-11-07T09:03:08.514Z,1.60
2017-11-07T09:05:34.856Z,1.90
2017-11-07T09:08:03.175Z,2.80
2017-11-07T09:10:30.515Z,2.10
2017-11-07T09:12:58.554Z,2.77
2017-11-07T09:15:26.195Z,1.73
2017-11-07T09:17:54.245Z,2.23
2017-11-07T09:20:22.788Z,1.70
2017-11-07T09:22:50.667Z,2.30
2017-11-07T09:25:17.028Z,1.80
2017-11-07T09:27:43.376Z,2.00
2017-11-07T09:30:09.594Z,2.03
2017-11-07T09:32:35.805Z,1.97
2017-11-07T09:35:02.138Z,2.47
2017-11-07T09:37:28.355Z,2.20
2017-11-07T09:39:54.588Z,1.80
2017-11-07T09:42:20.831Z,2.23
2017-11-07T09:44:47.035Z,1.80
2017-11-07T09:47:13.589Z,1.83
2017-11-07T09:49:39.934Z,1.77
2017-11-07T09:52:06.132Z,1.90
2017-11-07T09:54:32.348Z,1.60
2017-11-07T09:56:58.634Z,2.00
2017-11-07T09:59:24.850Z,1.70
2017-11-07T10:01:51.291Z,1.50
2017-11-07T10:04:17.636Z,1.90
2017-11-07T10:06:44.094Z,1.90
2017-11-07T10:09:11.252Z,2.10
2017-11-07T10:11:37.522Z,1.83
2017-11-07T10:14:03.712Z,1.50
2017-11-07T10:16:29.909Z,1.50
2017-11-07T10:18:56.176Z,1.90
2017-11-07T10:21:22.379Z,1.83
2017-11-07T10:23:48.580Z,1.90
2017-11-07T10:26:14.844Z,1.80
2017-11-07T10:28:41.068Z,1.77
2017-11-07T10:31:07.340Z,1.90
2017-11-07T10:33:33.622Z,1.90
2017-11-07T10:35:59.968Z,1.70
2017-11-07T10:38:26.268Z,2.33
2017-11-07T10:40:52.759Z,2.10
2017-11-07T10:43:18.974Z,1.60
2017-11-07T10:45:45.182Z,2.00
2017-11-07T10:48:11.774Z,1.70
2017-11-07T10:50:37.995Z,1.87
2017-11-07T10:53:04.199Z,1.63
2017-11-07T10:55:30.473Z,1.77
2017-11-07T10:57:56.750Z,1.50
2017-11-07T11:00:23.022Z,1.90
2017-11-07T11:02:49.575Z,2.07
2017-11-07T11:05:16.010Z,1.80
2017-11-07T11:07:42.204Z,2.10
2017-11-07T11:10:08.447Z,2.00
2017-11-07T11:12:35.151Z,1.80
2017-11-07T11:15:01.349Z,1.70
2017-11-07T11:17:27.766Z,1.97
2017-11-07T11:19:54.009Z,1.60
2017-11-07T11:22:20.226Z,1.70
2017-11-07T11:24:46.415Z,2.00
2017-11-07T11:27:13.082Z,1.67
2017-11-07T11:29:39.267Z,1.83
2017-11-07T11:32:05.458Z,2.43
2017-11-07T11:34:31.782Z,2.17
2017-11-07T11:36:57.979Z,1.60
2017-11-07T11:39:24.528Z,2.33
2017-11-07T11:41:51.385Z,1.73
2017-11-07T11:44:17.585Z,1.80
2017-11-07T11:46:44.037Z,2.07
2017-11-07T11:49:10.334Z,1.80
2017-11-07T11:51:36.549Z,2.13
2017-11-07T11:54:02.756Z,2.30
2017-11-07T11:56:28.997Z,1.93
2017-11-07T11:58:55.486Z,2.00
2017-11-07T12:01:21.698Z,3.33
2017-11-07T12:03:47.976Z,1.80
2017-11-07T12:06:14.190Z,2.30
2017-11-07T12:08:40.404Z,2.30
2017-11-07T12:11:06.654Z,2.10
2017-11-07T12:13:33.432Z,1.97
2017-11-07T12:15:59.745Z,2.17
2017-11-07T12:18:26.137Z,1.40
2017-11-07T12:20:52.351Z,2.37
2017-11-07T12:23:18.636Z,2.93
2017-11-07T12:25:44.922Z,3.63
2017-11-07T12:28:11.378Z,4.00
2017-11-07T12:30:37.574Z,3.00
2017-11-07T12:33:04.155Z,2.63
2017-11-07T12:35:30.374Z,3.30
2017-11-07T12:37:56.998Z,3.50
2017-11-07T12:40:23.679Z,3.67
2017-11-07T12:42:50.243Z,4.60
2017-11-07T12:45:17.582Z,3.73
2017-11-07T12:47:43.923Z,3.90
2017-11-07T12:50:22.657Z,4.37
2017-11-07T12:52:48.994Z,5.13
2017-11-07T12:55:15.530Z,3.27
2017-11-07T12:57:41.817Z,3.30
2017-11-07T13:00:08.579Z,4.40
2017-11-07T13:02:35.139Z,4.00
2017-11-07T13:05:01.413Z,3.77
2017-11-07T13:07:28.083Z,3.13
2017-11-07T13:09:54.366Z,3.00
2017-11-07T13:12:20.658Z,3.80
2017-11-07T13:14:47.031Z,3.47
2017-11-07T13:17:13.310Z,3.93
2017-11-07T13:19:39.570Z,4.70
2017-11-07T13:22:06.136Z,3.47
2017-11-07T13:24:32.443Z,3.50
2017-11-07T13:26:58.694Z,3.17
2017-11-07T13:29:25.082Z,3.47
2017-11-07T13:31:51.357Z,3.30
2017-11-07T13:34:17.632Z,3.70
2017-11-07T13:36:44.427Z,3.03
2017-11-07T13:39:10.711Z,3.80
2017-11-07T13:41:36.955Z,4.17
2017-11-07T13:44:03.387Z,2.90
2017-11-07T13:46:29.719Z,3.40
2017-11-07T13:48:55.984Z,3.53
2017-11-07T13:51:22.392Z,3.90
2017-11-07T13:53:48.666Z,3.47
2017-11-07T13:56:14.960Z,4.27
2017-11-07T13:58:41.291Z,3.70
2017-11-07T14:01:08.258Z,4.10
2017-11-07T14:03:34.549Z,5.67
2017-11-07T14:06:01.120Z,3.30
2017-11-07T14:08:27.392Z,3.83
2017-11-07T14:10:53.677Z,4.37
2017-11-07T14:13:20.074Z,3.90
2017-11-07T14:15:46.333Z,3.37
2017-11-07T14:18:12.603Z,3.10
2017-11-07T14:20:39.323Z,5.37
2017-11-07T14:23:05.628Z,3.00
2017-11-07T14:25:32.208Z,3.90
2017-11-07T14:27:59.035Z,3.57
2017-11-07T14:30:25.542Z,3.33
2017-11-07T14:32:51.800Z,4.10
2017-11-07T14:35:18.155Z,3.80
2017-11-07T14:37:44.911Z,2.90
2017-11-07T14:40:11.166Z,2.90
2017-11-07T14:42:37.494Z,3.17
2017-11-07T14:45:03.773Z,3.63
2017-11-07T14:47:30.044Z,3.50
2017-11-07T14:49:56.489Z,3.80
2017-11-07T14:52:22.770Z,3.30
2017-11-07T14:54:49.074Z,3.10
2017-11-07T14:57:15.694Z,3.57
2017-11-07T14:59:41.998Z,3.73
2017-11-07T15:02:08.277Z,2.90
2017-11-07T15:04:34.639Z,3.40
2017-11-07T15:07:00.842Z,3.33
2017-11-07T15:09:27.271Z,3.77
2017-11-07T15:11:53.777Z,3.67
2017-11-07T15:14:19.975Z,3.00
2017-11-07T15:16:46.288Z,3.20
2017-11-07T15:19:12.844Z,3.20
2017-11-07T15:21:39.129Z,3.30
2017-11-07T15:24:05.380Z,3.20
2017-11-07T15:26:31.703Z,3.80
2017-11-07T15:28:58.181Z,3.13
2017-11-07T15:31:24.433Z,2.80
2017-11-07T15:33:50.800Z,2.90
2017-11-07T15:36:17.049Z,3.43
2017-11-07T15:38:43.685Z,2.70
2017-11-07T15:41:10.079Z,2.50
2017-11-07T15:43:36.302Z,2.70
2017-11-07T15:46:02.562Z,2.47
2017-11-07T15:48:28.997Z,2.70
2017-11-07T15:50:55.696Z,2.67
2017-11-07T15:53:21.973Z,3.30
2017-11-07T15:55:48.310Z,3.63
2017-11-07T15:58:14.581Z,2.27
2017-11-07T16:00:40.849Z,3.00
2017-11-07T16:03:07.282Z,3.40
2017-11-07T16:05:33.583Z,3.00
2017-11-07T16:07:59.858Z,3.07
2017-11-07T16:10:26.193Z,2.87
2017-11-07T16:12:52.438Z,2.63
2017-11-07T16:15:18.696Z,2.90
2017-11-07T16:17:45.067Z,2.30
2017-11-07T16:20:11.355Z,3.43
2017-11-07T16:22:37.628Z,2.90
2017-11-07T16:25:03.986Z,3.17
2017-11-07T16:27:30.281Z,2.73
2017-11-07T16:30:05.752Z,2.90
2017-11-07T16:32:32.056Z,2.77
2017-11-07T16:34:58.331Z,2.63
2017-11-07T16:37:24.720Z,2.60
2017-11-07T16:39:51.020Z,3.40
2017-11-07T16:42:17.257Z,2.70
2017-11-07T16:44:43.983Z,2.57
2017-11-07T16:47:10.238Z,2.37
2017-11-07T16:49:36.494Z,2.53
2017-11-07T16:52:03.003Z,3.40
2017-11-07T16:54:29.486Z,2.97
2017-11-07T16:56:55.884Z,2.80
2017-11-07T16:59:22.116Z,2.80
2017-11-07T17:01:48.313Z,2.90
2017-11-07T17:04:14.670Z,2.77
2017-11-07T17:06:40.880Z,3.40
2017-11-07T17:09:07.100Z,3.40
2017-11-07T17:11:33.641Z,3.47
2017-11-07T17:13:59.843Z,2.90
2017-11-07T17:16:26.035Z,3.03
2017-11-07T17:18:52.289Z,3.10
2017-11-07T17:21:18.487Z,3.50
2017-11-07T17:23:44.678Z,3.33
2017-11-07T17:26:11.173Z,3.47
2017-11-07T17:28:37.597Z,2.83
2017-11-07T17:31:03.798Z,3.20
2017-11-07T17:33:30.468Z,2.93
2017-11-07T17:35:56.693Z,2.70
2017-11-07T17:38:22.926Z,3.20
2017-11-07T17:40:49.211Z,2.73
2017-11-07T17:43:15.474Z,3.30
2017-11-07T17:45:41.752Z,2.80
2017-11-07T17:48:08.093Z,3.40
2017-11-07T17:50:34.364Z,2.67
2017-11-07T17:53:00.742Z,2.30
2017-11-07T17:55:27.109Z,3.00
2017-11-07T17:57:53.378Z,3.00
2017-11-07T18:00:19.640Z,3.13
2017-11-07T18:02:46.374Z,3.73
2017-11-07T18:05:12.641Z,3.20
2017-11-07T18:07:39.079Z,2.43
2017-11-07T18:10:05.744Z,2.70
2017-11-07T18:12:31.991Z,2.63
2017-11-07T18:14:58.267Z,2.63
2017-11-07T18:17:24.654Z,3.30
2017-11-07T18:19:50.952Z,3.13
2017-11-07T18:22:17.238Z,3.40
2017-11-07T18:24:44.287Z,2.87
2017-11-07T18:27:10.543Z,2.77
2017-11-07T18:29:36.781Z,2.50
2017-11-07T18:32:03.541Z,3.07
2017-11-07T18:34:29.824Z,2.30
2017-11-07T18:36:56.075Z,2.40
2017-11-07T18:39:22.350Z,2.70
2017-11-07T18:41:48.627Z,2.80
2017-11-07T18:44:14.873Z,2.93
2017-11-07T18:46:41.296Z,2.60
2017-11-07T18:49:07.641Z,2.60
2017-11-07T18:51:33.901Z,2.83
2017-11-07T18:54:00.225Z,2.50
2017-11-07T18:56:26.850Z,2.20
2017-11-07T18:58:53.100Z,2.37
2017-11-07T19:01:19.623Z,2.50
2017-11-07T19:03:45.969Z,2.90
2017-11-07T19:06:12.293Z,3.10
2017-11-07T19:08:39.144Z,2.80
2017-11-07T19:11:05.402Z,2.70
2017-11-07T19:13:31.678Z,2.73
2017-11-07T19:15:58.449Z,2.43
2017-11-07T19:18:24.699Z,2.70
2017-11-07T19:20:50.957Z,2.30
2017-11-07T19:23:17.731Z,2.53
2017-11-07T19:25:43.979Z,2.73
2017-11-07T19:28:10.227Z,2.33
2017-11-07T19:30:36.528Z,2.50
2017-11-07T19:33:02.796Z,2.20
2017-11-07T19:35:29.094Z,2.30
2017-11-07T19:37:55.939Z,2.60
2017-11-07T19:40:22.200Z,2.20
2017-11-07T19:42:48.449Z,2.60
2017-11-07T19:45:14.757Z,2.20
2017-11-07T19:47:41.239Z,2.67
2017-11-07T19:50:07.501Z,2.40
2017-11-07T19:52:34.208Z,2.57
2017-11-07T19:55:00.634Z,2.63
2017-11-07T19:57:26.891Z,2.83
2017-11-07T19:59:53.208Z,2.57
2017-11-07T20:02:19.490Z,3.20
2017-11-07T20:04:45.752Z,2.33
2017-11-07T20:07:12.062Z,2.60
2017-11-07T20:09:38.330Z,2.80
2017-11-07T20:12:04.605Z,2.37
2017-11-07T20:14:31.001Z,2.20
2017-11-07T20:16:57.256Z,2.60
2017-11-07T20:19:23.554Z,2.13
2017-11-07T20:21:51.656Z,3.30
2017-11-07T20:24:17.937Z,3.07
2017-11-07T20:26:44.539Z,2.50
2017-11-07T20:29:11.031Z,2.33
2017-11-07T20:31:37.269Z,2.57
2017-11-07T20:34:03.531Z,2.30
2017-11-07T20:36:30.114Z,2.63
2017-11-07T20:38:56.395Z,2.40
2017-11-07T20:41:22.698Z,2.90
2017-11-07T20:43:49.348Z,4.00
2017-11-07T20:46:15.824Z,2.33
2017-11-07T20:48:42.168Z,2.60
2017-11-07T20:51:09.019Z,3.40
2017-11-07T20:53:35.262Z,2.33
2017-11-07T20:56:01.730Z,3.20
2017-11-07T20:58:28.534Z,3.07
2017-11-07T21:00:54.805Z,3.53
2017-11-07T21:03:22.239Z,2.50
2017-11-07T21:05:48.550Z,3.10
2017-11-07T21:08:14.809Z,2.60
2017-11-07T21:10:41.129Z,2.67
2017-11-07T21:13:07.517Z,3.30
2017-11-07T21:15:33.789Z,2.93
2017-11-07T21:18:00.065Z,2.70
2017-11-07T21:20:26.487Z,2.50
2017-11-07T21:22:52.739Z,2.77
2017-11-07T21:25:19.001Z,3.07
2017-11-07T21:27:45.628Z,2.70
2017-11-07T21:30:11.879Z,2.70
2017-11-07T21:32:38.399Z,2.70
2017-11-07T21:35:05.088Z,2.67
2017-11-07T21:37:31.398Z,2.40
2017-11-07T21:39:57.639Z,2.57
2017-11-07T21:42:23.851Z,2.33
2017-11-07T21:44:50.106Z,2.43
2017-11-07T21:47:16.386Z,3.00
2017-11-07T21:49:42.707Z,2.97
2017-11-07T21:52:09.008Z,2.97
2017-11-07T21:54:35.264Z,2.97
2017-11-07T21:57:01.753Z,3.17
2017-11-07T21:59:28.072Z,2.90
2017-11-07T22:01:54.311Z,2.40
2017-11-07T22:04:20.734Z,2.43
2017-11-07T22:06:47.009Z,2.43
2017-11-07T22:09:13.283Z,2.60
2017-11-07T22:11:40.032Z,2.43
2017-11-07T22:14:06.314Z,2.23
2017-11-07T22:16:38.525Z,2.50
2017-11-07T22:19:04.880Z,2.67
2017-11-07T22:21:31.157Z,2.63
2017-11-07T22:23:57.427Z,2.50
2017-11-07T22:26:23.823Z,2.47
2017-11-07T22:28:50.129Z,2.77
2017-11-07T22:31:16.464Z,2.70
2017-11-07T22:33:43.106Z,2.60
2017-11-07T22:36:09.390Z,2.27
2017-11-07T22:38:35.680Z,2.77
2017-11-07T22:41:02.076Z,2.67
2017-11-07T22:43:28.357Z,2.67
2017-11-07T22:45:54.667Z,2.43
2017-11-07T22:48:21.402Z,2.37
2017-11-07T22:50:47.609Z,2.10
2017-11-07T22:53:14.058Z,2.13
2017-11-07T22:55:40.387Z,2.13
2017-11-07T22:58:07.021Z,2.50
2017-11-07T23:00:33.227Z,2.10
2017-11-07T23:02:59.503Z,2.10
2017-11-07T23:05:26.714Z,2.00
2017-11-07T23:07:52.932Z,2.17
2017-11-07T23:10:19.361Z,2.43
2017-11-07T23:12:45.559Z,2.33
2017-11-07T23:15:11.766Z,3.07
2017-11-07T23:17:38.273Z,2.13
2017-11-07T23:20:04.472Z,2.03
2017-11-07T23:22:30.671Z,2.07
2017-11-07T23:24:57.162Z,2.03
2017-11-07T23:27:23.618Z,2.30
2017-11-07T23:29:50.049Z,2.13
2017-11-07T23:32:16.747Z,2.10
2017-11-07T23:34:42.960Z,2.07
2017-11-07T23:37:09.164Z,1.70
2017-11-07T23:39:35.416Z,2.00
2017-11-07T23:42:01.610Z,1.97
2017-11-07T23:44:27.794Z,2.20
2017-11-07T23:46:54.410Z,1.87
2017-11-07T23:49:20.604Z,1.87
2017-11-07T23:51:46.797Z,2.23
2017-11-07T23:54:13.044Z,2.03
2017-11-07T23:56:39.224Z,1.97
2017-11-07T23:59:05.751Z,2.20
